Ocean Liberty — WDE2762 — position and weather

sailwx.info

Track history (hours):
 
Tides and Currents Weather Stations Pressure Air Temp Water Temp Dewpoint Dewpoint Depression Visibility Wind Speed Wind Dir Waves Ship Positions

Ocean Liberty

Owner: Marine Spill Response Corporation, Long Beach, CA. More information available from US FCC via Universal Licensing System and Coast Guard Vessel Documentation Center.

Last reported at 2017-Mar-22 21:20 UTC. Time now 2017-Mar-23 12:28 UTC.
Position N 33°46' W 118°13'.

; draft 2 m.

Type: Pollution control. MMSI: 367329330.

Date/timePositionNaut miles runAvg speedWind from/ knotsBaromVisibWave heightAir tempDewpointWater temp
2017-Mar-22 21:20N 33°46' W 118°13'0 0.0
2017-Mar-22 20:32N 33°46' W 118°13'0 0.0
2017-Mar-21 22:31N 33°46' W 118°13'0 0.0
2017-Mar-21 21:19N 33°46' W 118°13'0 0.0
2017-Mar-21 20:25N 33°46' W 118°13'1 0.3
2017-Mar-21 18:04N 33°46' W 118°13'3 4.9
2017-Mar-21 17:32N 33°44' W 118°12'6 6.0
2017-Mar-21 16:29N 33°42' W 118°04'8 4.1
2017-Mar-21 14:32N 33°44' W 118°13'2 0.1
2017-Mar-20 03:29N 33°46' W 118°13'0 0.0
2017-Mar-20 02:17N 33°46' W 118°13'0 0.0
2017-Mar-20 01:32N 33°46' W 118°13'0 0.0
2017-Mar-20 00:29N 33°46' W 118°13'0 0.0
2017-Mar-19 23:32N 33°46' W 118°13'0 0.0
2017-Mar-19 22:32N 33°46' W 118°13'0 0.0
2017-Mar-19 21:29N 33°46' W 118°13'0 0.0
2017-Mar-19 20:29N 33°46' W 118°13'0 0.0
2017-Mar-19 18:23N 33°46' W 118°13'0 0.0
2017-Mar-19 17:23N 33°46' W 118°13'0 0.0
2017-Mar-19 16:32N 33°46' W 118°13'0 0.0
2017-Mar-19 15:32N 33°46' W 118°13'0 0.0
2017-Mar-19 14:29N 33°46' W 118°13'0 0.0
2017-Mar-19 13:29N 33°46' W 118°13'0 0.0
2017-Mar-19 12:29N 33°46' W 118°13'0 0.0
2017-Mar-19 11:29N 33°46' W 118°13'0 0.0
2017-Mar-19 10:23N 33°46' W 118°13'0 0.0
2017-Mar-19 09:29N 33°46' W 118°13'0 0.0
2017-Mar-19 06:17N 33°46' W 118°13'0 0.0
2017-Mar-19 05:29N 33°46' W 118°13'0 0.0
2017-Mar-19 04:32N 33°46' W 118°13'0 0.0
2017-Mar-19 03:32N 33°46' W 118°13'0 0.0
2017-Mar-19 02:32N 33°46' W 118°13'0 0.0
2017-Mar-19 01:32N 33°46' W 118°13'0 0.0
2017-Mar-19 00:32N 33°46' W 118°13'0 0.0
2017-Mar-18 23:32N 33°46' W 118°13'0 0.0
2017-Mar-18 21:11N 33°46' W 118°13'0 0.0
2017-Mar-18 20:29N 33°46' W 118°13'0 0.0
2017-Mar-18 19:32N 33°46' W 118°13'0 0.0
2017-Mar-18 15:28N 33°46' W 118°13'0 0.0
2017-Mar-18 14:22N 33°46' W 118°13'0 0.0
2017-Mar-18 12:16N 33°46' W 118°13'0 0.0
2017-Mar-18 11:10N 33°46' W 118°13'0 0.0
2017-Mar-18 10:28N 33°46' W 118°13'0 0.0
2017-Mar-18 09:31N 33°46' W 118°13'0 0.0
2017-Mar-18 08:31N 33°46' W 118°13'0 0.0
2017-Mar-18 07:22N 33°46' W 118°13'0 0.0
2017-Mar-18 06:28N 33°46' W 118°13'0 0.0
2017-Mar-18 05:28N 33°46' W 118°13'0 0.0
2017-Mar-18 03:10N 33°46' W 118°13'0 0.0
2017-Mar-18 02:25N 33°46' W 118°13'0 0.0
2017-Mar-18 01:28N 33°46' W 118°13'0 0.0
2017-Mar-18 00:28N 33°46' W 118°13'0 0.0
2017-Mar-17 23:31N 33°46' W 118°13'0 0.0
2017-Mar-17 22:31N 33°46' W 118°13'0 0.0
2017-Mar-17 21:22N 33°46' W 118°13'0 0.0
2017-Mar-17 17:22N 33°46' W 118°13'0 0.0
2017-Mar-17 16:28N 33°46' W 118°13'0 0.0
2017-Mar-17 15:16N 33°46' W 118°13'0 0.0
2017-Mar-17 14:16N 33°46' W 118°13'0 0.0
2017-Mar-17 13:16N 33°46' W 118°13'0 0.0
2017-Mar-17 11:10N 33°46' W 118°13'0 0.0
2017-Mar-17 10:28N 33°46' W 118°13'0 0.0
2017-Mar-17 07:16N 33°46' W 118°13'0 0.0
2017-Mar-17 06:34N 33°46' W 118°13'0 0.0
2017-Mar-17 05:33N 33°46' W 118°13'0 0.0
2017-Mar-17 03:27N 33°46' W 118°13'0 0.0
2017-Mar-17 01:27N 33°46' W 118°13'0 0.0
2017-Mar-17 00:33N 33°46' W 118°13'0 0.0
2017-Mar-16 23:33N 33°46' W 118°13'0 0.0
2017-Mar-16 22:33N 33°46' W 118°13'0 0.0
2017-Mar-16 21:27N 33°46' W 118°13'0 0.0
2017-Mar-16 20:27N 33°46' W 118°13'0 0.0
2017-Mar-16 19:33N 33°46' W 118°13'0 0.0
2017-Mar-16 18:33N 33°46' W 118°13'0 0.0
2017-Mar-16 17:03N 33°46' W 118°13'0 0.0
2017-Mar-16 12:33N 33°46' W 118°13'0 0.0
2017-Mar-16 11:33N 33°46' W 118°13'0 0.0
2017-Mar-16 10:27N 33°46' W 118°13'0 0.0
2017-Mar-16 09:30N 33°46' W 118°13'0 0.0
2017-Mar-16 08:33N 33°46' W 118°13'0 0.0
2017-Mar-16 07:33N 33°46' W 118°13'0 0.0
2017-Mar-16 06:33N 33°46' W 118°13'0 0.0
2017-Mar-16 05:33N 33°46' W 118°13'0 0.0
2017-Mar-16 04:33N 33°46' W 118°13'0 0.0
2017-Mar-16 03:24N 33°46' W 118°13'0 0.0
2017-Mar-16 01:33N 33°46' W 118°13'0 0.0
2017-Mar-15 23:24N 33°46' W 118°13'0 0.0
2017-Mar-15 21:33N 33°46' W 118°13'0 0.0
2017-Mar-15 20:33N 33°46' W 118°13'0 0.0
2017-Mar-15 19:33N 33°46' W 118°13'0 0.0
2017-Mar-15 18:33N 33°46' W 118°13'0 0.0
2017-Mar-15 17:33N 33°46' W 118°13'0 0.0
2017-Mar-15 16:33N 33°46' W 118°13'0 0.0
2017-Mar-15 15:32N 33°46' W 118°13'0 0.0
2017-Mar-15 14:32N 33°46' W 118°13'0 0.0
2017-Mar-15 13:32N 33°46' W 118°13'0 0.0
2017-Mar-15 12:32N 33°46' W 118°13'0 0.0
2017-Mar-15 11:32N 33°46' W 118°13'0 0.0
2017-Mar-15 10:32N 33°46' W 118°13'0 0.0
2017-Mar-15 09:32N 33°46' W 118°13'0 0.0
2017-Mar-15 08:32N 33°46' W 118°13'0 0.0
2017-Mar-15 07:32N 33°46' W 118°13'0 0.0
2017-Mar-15 06:26N 33°46' W 118°13'0 0.0
2017-Mar-15 05:23N 33°46' W 118°13'0 0.0
2017-Mar-15 03:20N 33°46' W 118°13'0 0.0
2017-Mar-15 02:32N 33°46' W 118°13'0 0.0
2017-Mar-15 01:32N 33°46' W 118°13'0 0.0
2017-Mar-15 00:26N 33°46' W 118°13'0 0.0
2017-Mar-14 23:32N 33°46' W 118°13'0 0.0
2017-Mar-14 21:32N 33°46' W 118°13'0 0.0
2017-Mar-14 20:32N 33°46' W 118°13'0 0.0
2017-Mar-14 19:32N 33°46' W 118°13'0 0.0
2017-Mar-14 18:32N 33°46' W 118°13'0 0.0
2017-Mar-14 17:26N 33°46' W 118°13'0 0.0
2017-Mar-14 16:32N 33°46' W 118°13'0 0.0
2017-Mar-14 15:32N 33°46' W 118°13'0 0.0
2017-Mar-14 14:32N 33°46' W 118°13'0 0.0
2017-Mar-14 13:08N 33°46' W 118°13'0 0.0
2017-Mar-14 12:26N 33°46' W 118°13'0 0.0
2017-Mar-14 10:32N 33°46' W 118°13'0 0.0
2017-Mar-14 09:32N 33°46' W 118°13'0 0.0
2017-Mar-14 08:20N 33°46' W 118°13'0 0.0
2017-Mar-14 07:32N 33°46' W 118°13'0 0.0
2017-Mar-14 06:32N 33°46' W 118°13'0 0.0
2017-Mar-14 05:29N 33°46' W 118°13'0 0.0
2017-Mar-14 04:32N 33°46' W 118°13'0 0.0
2017-Mar-14 03:32N 33°46' W 118°13'0 0.0
2017-Mar-14 02:32N 33°46' W 118°13'0 0.0
2017-Mar-14 01:31N 33°46' W 118°13'0 0.0
2017-Mar-14 00:19N 33°46' W 118°13'0 0.0
2017-Mar-13 23:31N 33°46' W 118°13'0 0.0
2017-Mar-13 22:31N 33°46' W 118°13'0 0.0
2017-Mar-13 21:31N 33°46' W 118°13'0 0.0
2017-Mar-13 20:31N 33°46' W 118°13'0 0.0
2017-Mar-13 19:25N 33°46' W 118°13'0 0.0
2017-Mar-13 18:31N 33°46' W 118°13'0 0.0
2017-Mar-13 17:31N 33°46' W 118°13'0 0.0
2017-Mar-13 16:22N 33°46' W 118°13'0 0.0
2017-Mar-13 14:31N 33°46' W 118°13'0 0.0
2017-Mar-13 13:31N 33°46' W 118°13'0 0.0
2017-Mar-13 12:31N 33°46' W 118°13'0 0.0
2017-Mar-13 11:31N 33°46' W 118°13'0 0.0
2017-Mar-13 10:25N 33°46' W 118°13'0 0.0
2017-Mar-13 07:13N 33°46' W 118°13'0 0.0
2017-Mar-13 06:31N 33°46' W 118°13'0 0.0
2017-Mar-13 05:31N 33°46' W 118°13'0 0.0
2017-Mar-13 04:28N 33°46' W 118°13'0 0.0
2017-Mar-13 03:31N 33°46' W 118°13'0 0.0
2017-Mar-13 02:31N 33°46' W 118°13'0 0.0
2017-Mar-13 01:31N 33°46' W 118°13'0 0.0
2017-Mar-13 00:31N 33°46' W 118°13'0 0.0
2017-Mar-12 23:31N 33°46' W 118°13'0 0.0
2017-Mar-12 22:31N 33°46' W 118°13'0 0.0
2017-Mar-12 21:28N 33°46' W 118°13'  
Track history (hours):
 
Tides and Currents Weather Stations Pressure Air Temp Water Temp Dewpoint Dewpoint Depression Visibility Wind Speed Wind Dir Waves Ship Positions

Ocean Liberty

Owner: Marine Spill Response Corporation, Long Beach, CA. More information available from US FCC via Universal Licensing System and Coast Guard Vessel Documentation Center.

Last reported at 2017-Mar-22 21:20 UTC. Time now 2017-Mar-23 12:28 UTC.
Position N 33°46' W 118°13'.

; draft 2 m.

Type: Pollution control. MMSI: 367329330.

Date/timePositionNaut miles runAvg speedWind from/ knotsBaromVisibWave heightAir tempDewpointWater temp
2017-Mar-22 21:20N 33°46' W 118°13'0 0.0
2017-Mar-22 20:32N 33°46' W 118°13'0 0.0
2017-Mar-21 22:31N 33°46' W 118°13'0 0.0
2017-Mar-21 21:19N 33°46' W 118°13'0 0.0
2017-Mar-21 20:25N 33°46' W 118°13'1 0.3
2017-Mar-21 18:04N 33°46' W 118°13'3 4.9
2017-Mar-21 17:32N 33°44' W 118°12'6 6.0
2017-Mar-21 16:29N 33°42' W 118°04'8 4.1
2017-Mar-21 14:32N 33°44' W 118°13'2 0.1
2017-Mar-20 03:29N 33°46' W 118°13'0 0.0
2017-Mar-20 02:17N 33°46' W 118°13'0 0.0
2017-Mar-20 01:32N 33°46' W 118°13'0 0.0
2017-Mar-20 00:29N 33°46' W 118°13'0 0.0
2017-Mar-19 23:32N 33°46' W 118°13'0 0.0
2017-Mar-19 22:32N 33°46' W 118°13'0 0.0
2017-Mar-19 21:29N 33°46' W 118°13'0 0.0
2017-Mar-19 20:29N 33°46' W 118°13'0 0.0
2017-Mar-19 18:23N 33°46' W 118°13'0 0.0
2017-Mar-19 17:23N 33°46' W 118°13'0 0.0
2017-Mar-19 16:32N 33°46' W 118°13'0 0.0
2017-Mar-19 15:32N 33°46' W 118°13'0 0.0
2017-Mar-19 14:29N 33°46' W 118°13'0 0.0
2017-Mar-19 13:29N 33°46' W 118°13'0 0.0
2017-Mar-19 12:29N 33°46' W 118°13'0 0.0
2017-Mar-19 11:29N 33°46' W 118°13'0 0.0
2017-Mar-19 10:23N 33°46' W 118°13'0 0.0
2017-Mar-19 09:29N 33°46' W 118°13'0 0.0
2017-Mar-19 06:17N 33°46' W 118°13'0 0.0
2017-Mar-19 05:29N 33°46' W 118°13'0 0.0
2017-Mar-19 04:32N 33°46' W 118°13'0 0.0
2017-Mar-19 03:32N 33°46' W 118°13'0 0.0
2017-Mar-19 02:32N 33°46' W 118°13'0 0.0
2017-Mar-19 01:32N 33°46' W 118°13'0 0.0
2017-Mar-19 00:32N 33°46' W 118°13'0 0.0
2017-Mar-18 23:32N 33°46' W 118°13'0 0.0
2017-Mar-18 21:11N 33°46' W 118°13'0 0.0
2017-Mar-18 20:29N 33°46' W 118°13'0 0.0
2017-Mar-18 19:32N 33°46' W 118°13'0 0.0
2017-Mar-18 15:28N 33°46' W 118°13'0 0.0
2017-Mar-18 14:22N 33°46' W 118°13'0 0.0
2017-Mar-18 12:16N 33°46' W 118°13'0 0.0
2017-Mar-18 11:10N 33°46' W 118°13'0 0.0
2017-Mar-18 10:28N 33°46' W 118°13'0 0.0
2017-Mar-18 09:31N 33°46' W 118°13'0 0.0
2017-Mar-18 08:31N 33°46' W 118°13'0 0.0
2017-Mar-18 07:22N 33°46' W 118°13'0 0.0
2017-Mar-18 06:28N 33°46' W 118°13'0 0.0
2017-Mar-18 05:28N 33°46' W 118°13'0 0.0
2017-Mar-18 03:10N 33°46' W 118°13'0 0.0
2017-Mar-18 02:25N 33°46' W 118°13'0 0.0
2017-Mar-18 01:28N 33°46' W 118°13'0 0.0
2017-Mar-18 00:28N 33°46' W 118°13'0 0.0
2017-Mar-17 23:31N 33°46' W 118°13'0 0.0
2017-Mar-17 22:31N 33°46' W 118°13'0 0.0
2017-Mar-17 21:22N 33°46' W 118°13'0 0.0
2017-Mar-17 17:22N 33°46' W 118°13'0 0.0
2017-Mar-17 16:28N 33°46' W 118°13'0 0.0
2017-Mar-17 15:16N 33°46' W 118°13'0 0.0
2017-Mar-17 14:16N 33°46' W 118°13'0 0.0
2017-Mar-17 13:16N 33°46' W 118°13'0 0.0
2017-Mar-17 11:10N 33°46' W 118°13'0 0.0
2017-Mar-17 10:28N 33°46' W 118°13'0 0.0
2017-Mar-17 07:16N 33°46' W 118°13'0 0.0
2017-Mar-17 06:34N 33°46' W 118°13'0 0.0
2017-Mar-17 05:33N 33°46' W 118°13'0 0.0
2017-Mar-17 03:27N 33°46' W 118°13'0 0.0
2017-Mar-17 01:27N 33°46' W 118°13'0 0.0
2017-Mar-17 00:33N 33°46' W 118°13'0 0.0
2017-Mar-16 23:33N 33°46' W 118°13'0 0.0
2017-Mar-16 22:33N 33°46' W 118°13'0 0.0
2017-Mar-16 21:27N 33°46' W 118°13'0 0.0
2017-Mar-16 20:27N 33°46' W 118°13'0 0.0
2017-Mar-16 19:33N 33°46' W 118°13'0 0.0
2017-Mar-16 18:33N 33°46' W 118°13'0 0.0
2017-Mar-16 17:03N 33°46' W 118°13'0 0.0
2017-Mar-16 12:33N 33°46' W 118°13'0 0.0
2017-Mar-16 11:33N 33°46' W 118°13'0 0.0
2017-Mar-16 10:27N 33°46' W 118°13'0 0.0
2017-Mar-16 09:30N 33°46' W 118°13'0 0.0
2017-Mar-16 08:33N 33°46' W 118°13'0 0.0
2017-Mar-16 07:33N 33°46' W 118°13'0 0.0
2017-Mar-16 06:33N 33°46' W 118°13'0 0.0
2017-Mar-16 05:33N 33°46' W 118°13'0 0.0
2017-Mar-16 04:33N 33°46' W 118°13'0 0.0
2017-Mar-16 03:24N 33°46' W 118°13'0 0.0
2017-Mar-16 01:33N 33°46' W 118°13'0 0.0
2017-Mar-15 23:24N 33°46' W 118°13'0 0.0
2017-Mar-15 21:33N 33°46' W 118°13'0 0.0
2017-Mar-15 20:33N 33°46' W 118°13'0 0.0
2017-Mar-15 19:33N 33°46' W 118°13'0 0.0
2017-Mar-15 18:33N 33°46' W 118°13'0 0.0
2017-Mar-15 17:33N 33°46' W 118°13'0 0.0
2017-Mar-15 16:33N 33°46' W 118°13'0 0.0
2017-Mar-15 15:32N 33°46' W 118°13'0 0.0
2017-Mar-15 14:32N 33°46' W 118°13'0 0.0
2017-Mar-15 13:32N 33°46' W 118°13'0 0.0
2017-Mar-15 12:32N 33°46' W 118°13'0 0.0
2017-Mar-15 11:32N 33°46' W 118°13'0 0.0
2017-Mar-15 10:32N 33°46' W 118°13'0 0.0
2017-Mar-15 09:32N 33°46' W 118°13'0 0.0
2017-Mar-15 08:32N 33°46' W 118°13'0 0.0
2017-Mar-15 07:32N 33°46' W 118°13'0 0.0
2017-Mar-15 06:26N 33°46' W 118°13'0 0.0
2017-Mar-15 05:23N 33°46' W 118°13'0 0.0
2017-Mar-15 03:20N 33°46' W 118°13'0 0.0
2017-Mar-15 02:32N 33°46' W 118°13'0 0.0
2017-Mar-15 01:32N 33°46' W 118°13'0 0.0
2017-Mar-15 00:26N 33°46' W 118°13'0 0.0
2017-Mar-14 23:32N 33°46' W 118°13'0 0.0
2017-Mar-14 21:32N 33°46' W 118°13'0 0.0
2017-Mar-14 20:32N 33°46' W 118°13'0 0.0
2017-Mar-14 19:32N 33°46' W 118°13'0 0.0
2017-Mar-14 18:32N 33°46' W 118°13'0 0.0
2017-Mar-14 17:26N 33°46' W 118°13'0 0.0
2017-Mar-14 16:32N 33°46' W 118°13'0 0.0
2017-Mar-14 15:32N 33°46' W 118°13'0 0.0
2017-Mar-14 14:32N 33°46' W 118°13'0 0.0
2017-Mar-14 13:08N 33°46' W 118°13'0 0.0
2017-Mar-14 12:26N 33°46' W 118°13'0 0.0
2017-Mar-14 10:32N 33°46' W 118°13'0 0.0
2017-Mar-14 09:32N 33°46' W 118°13'0 0.0
2017-Mar-14 08:20N 33°46' W 118°13'0 0.0
2017-Mar-14 07:32N 33°46' W 118°13'0 0.0
2017-Mar-14 06:32N 33°46' W 118°13'0 0.0
2017-Mar-14 05:29N 33°46' W 118°13'0 0.0
2017-Mar-14 04:32N 33°46' W 118°13'0 0.0
2017-Mar-14 03:32N 33°46' W 118°13'0 0.0
2017-Mar-14 02:32N 33°46' W 118°13'0 0.0
2017-Mar-14 01:31N 33°46' W 118°13'0 0.0
2017-Mar-14 00:19N 33°46' W 118°13'0 0.0
2017-Mar-13 23:31N 33°46' W 118°13'0 0.0
2017-Mar-13 22:31N 33°46' W 118°13'0 0.0
2017-Mar-13 21:31N 33°46' W 118°13'0 0.0
2017-Mar-13 20:31N 33°46' W 118°13'0 0.0
2017-Mar-13 19:25N 33°46' W 118°13'0 0.0
2017-Mar-13 18:31N 33°46' W 118°13'0 0.0
2017-Mar-13 17:31N 33°46' W 118°13'0 0.0
2017-Mar-13 16:22N 33°46' W 118°13'0 0.0
2017-Mar-13 14:31N 33°46' W 118°13'0 0.0
2017-Mar-13 13:31N 33°46' W 118°13'0 0.0
2017-Mar-13 12:31N 33°46' W 118°13'0 0.0
2017-Mar-13 11:31N 33°46' W 118°13'0 0.0
2017-Mar-13 10:25N 33°46' W 118°13'0 0.0
2017-Mar-13 07:13N 33°46' W 118°13'0 0.0
2017-Mar-13 06:31N 33°46' W 118°13'0 0.0
2017-Mar-13 05:31N 33°46' W 118°13'0 0.0
2017-Mar-13 04:28N 33°46' W 118°13'0 0.0
2017-Mar-13 03:31N 33°46' W 118°13'0 0.0
2017-Mar-13 02:31N 33°46' W 118°13'0 0.0
2017-Mar-13 01:31N 33°46' W 118°13'0 0.0
2017-Mar-13 00:31N 33°46' W 118°13'0 0.0
2017-Mar-12 23:31N 33°46' W 118°13'0 0.0
2017-Mar-12 22:31N 33°46' W 118°13'0 0.0
2017-Mar-12 21:28N 33°46' W 118°13'  

Dump ship's entire track history